Austin, TX (78725)

4:55 PM CST on February 05, 2016 (GMT -0600)
Chaparral Crossing | | Change Station
CLOSE
Current Station
Personal Weather Station
Location: Austin, TX
Elevation: 440 ft
Nearby Weather Stations

Elev 440 ft 30.24 °N, 97.57 °W | Updated 36 seconds ago

Partly Cloudy
Partly Cloudy
61.0 °F
Feels Like 61.0 °F
N
2.7
Wind Variable Wind from WSW
Gusts 4.9 mph

Today
High -- | Low -- °F
--% Chance of Precip.
Yesterday
High -- | Low -- °F
Precip. -- in
Pressure 30.29 in
Visibility 10.0 miles
Clouds Scattered Clouds 7000 ft
Scattered Clouds 20000 ft
Dew Point 16 °F
Humidity 17%
Rainfall 0.00 in
Snow Depth Not available.
7:18 AM 6:10 PM
Waning Crescent, 9% visible
METAR KAUS 052253Z 18009KT 10SM SCT070 SCT200 16/M02 A3027 RMK AO2 SLP256 T01561017
Pressure 30.29 in
Visibility 10.0 miles
Clouds Scattered Clouds 7000 ft
Scattered Clouds 20000 ft
Dew Point 16 °F
Humidity 17%
Rainfall 0.00 in
Snow Depth Not available.
7:18 AM 6:10 PM
Waning Crescent, 9% visible
METAR KAUS 052253Z 18009KT 10SM SCT070 SCT200 16/M02 A3027 RMK AO2 SLP256 T01561017

10-Day Weather Forecast

Almanac

Astronomy

Feb. 05, 2016 Rise Set
Actual Time
Civil Twilight
Nautical Twilight
Astronomical Twilight
Moon
Length of Visible Light
Length of Day
Tomorrow will be .
, % of the Moon is Illuminated

Today's Extremes

State Highs State Lows

Community

WunderPhotos

Upload Photos

1,890,875 photos uploaded!

WunderBlog® & News

Nearby

Air Quality

  Air Quality AQ Index Pollutant
Not available.

Snow Depth

Station Depth Elevation

Earthquake Activity

City Distance Mag. Time & Date
Minimum magnitude displayed is 2.5.

Coastal Water Temperatures

Place Temperature

Stations

Nearby Weather Stations

Station Location Temp. Windchill Dew Point Humidity Wind Precip. Elev Updated Type
                   

Watches & Warnings

There are currently no watches in effect.